Time;durP1;ratioP1;P1;durP2;ratioP2;P2;SDS_P1;SDS_P2;PMS_P1;PMS_P2;Temp;Humidity;BMP_temperature;BMP_pressure;BME280_temperature;BME280_humidity;BME280_pressure;Samples;Min_cycle;Max_cycle;Signal;HPM_P1;HPM_P2
2024/02/14 05:01:20;;;;;;;1.10;1.00;;;5.30;97.30;;;;;;5753364;22;20475;-78
2024/02/14 05:03:45;;;;;;;2.00;1.57;;;5.40;97.30;;;;;;4998436;28;20928;-72
2024/02/14 05:06:11;;;;;;;1.80;1.33;;;5.50;97.30;;;;;;5016498;28;20346;-72
2024/02/14 05:08:36;;;;;;;1.30;1.20;;;5.60;97.30;;;;;;5010161;28;20192;-73
2024/02/14 05:11:03;;;;;;;1.53;1.43;;;5.60;97.30;;;;;;5010683;28;20748;-73
2024/02/14 05:13:29;;;;;;;1.00;0.90;;;5.70;97.30;;;;;;5030396;28;20181;-73
2024/02/14 05:15:55;;;;;;;0.93;0.83;;;5.70;97.30;;;;;;5017147;28;20443;-73
2024/02/14 05:18:21;;;;;;;0.97;0.87;;;5.80;97.30;;;;;;5036699;28;20433;-72
2024/02/14 05:20:46;;;;;;;0.90;0.80;;;5.90;97.30;;;;;;5010361;28;20295;-71
2024/02/14 05:23:12;;;;;;;1.00;0.90;;;5.90;97.30;;;;;;5028607;28;20180;-69
2024/02/14 05:25:37;;;;;;;1.00;0.90;;;6.00;97.30;;;;;;5036800;28;20538;-69
2024/02/14 05:28:03;;;;;;;0.80;0.70;;;6.10;97.30;;;;;;5028427;28;20611;-70
2024/02/14 05:30:29;;;;;;;1.00;0.90;;;6.20;97.30;;;;;;5028293;28;20207;-70
2024/02/14 05:32:55;;;;;;;1.00;0.90;;;6.30;97.30;;;;;;5028666;28;20443;-70
2024/02/14 05:35:22;;;;;;;0.90;0.80;;;6.40;97.30;;;;;;5010746;28;20251;-70
2024/02/14 05:37:49;;;;;;;0.90;0.80;;;6.40;97.30;;;;;;5028883;28;20415;-70
2024/02/14 05:40:15;;;;;;;0.90;0.80;;;6.50;97.30;;;;;;5002655;28;20454;-69
2024/02/14 05:42:41;;;;;;;0.97;0.87;;;6.50;97.30;;;;;;5019023;28;20458;-69
2024/02/14 05:45:09;;;;;;;1.57;1.43;;;6.50;97.30;;;;;;5010825;28;20550;-71
2024/02/14 05:47:35;;;;;;;1.10;1.00;;;6.60;97.30;;;;;;5010578;28;20231;-68
2024/02/14 05:50:01;;;;;;;2.10;0.90;;;6.60;97.30;;;;;;5042102;28;20786;-68
2024/02/14 05:52:26;;;;;;;0.90;0.80;;;6.60;97.30;;;;;;5019655;28;20200;-70
2024/02/14 05:54:52;;;;;;;0.90;0.80;;;6.70;97.30;;;;;;5030670;28;20426;-69
2024/02/14 05:57:17;;;;;;;1.00;0.90;;;6.70;97.30;;;;;;5008433;28;20188;-70
2024/02/14 05:59:43;;;;;;;0.80;0.70;;;6.70;97.30;;;;;;5022563;28;20672;-70
2024/02/14 06:02:09;;;;;;;0.90;0.80;;;6.80;97.30;;;;;;5025867;28;20592;-69
2024/02/14 06:04:35;;;;;;;1.53;1.00;;;6.80;97.30;;;;;;5025139;28;20177;-71
2024/02/14 06:07:02;;;;;;;0.90;0.80;;;6.80;97.30;;;;;;5025664;28;20459;-71
2024/02/14 06:09:28;;;;;;;2.03;1.90;;;6.80;97.30;;;;;;5026716;28;20663;-72
2024/02/14 06:11:53;;;;;;;0.80;0.70;;;6.80;97.30;;;;;;5009845;28;21111;-73
2024/02/14 06:14:19;;;;;;;0.97;0.87;;;6.90;97.30;;;;;;5027357;28;20270;-70
2024/02/14 06:16:44;;;;;;;10.80;1.40;;;6.90;97.30;;;;;;5012772;28;20180;-70
2024/02/14 06:19:11;;;;;;;0.90;0.80;;;6.80;97.30;;;;;;5015304;28;20188;-71
2024/02/14 06:21:37;;;;;;;10.97;2.40;;;6.90;97.30;;;;;;5027330;28;20196;-70
2024/02/14 06:24:05;;;;;;;0.90;0.80;;;6.80;97.30;;;;;;5009717;28;20423;-70
2024/02/14 06:26:33;;;;;;;1.10;1.00;;;6.80;97.30;;;;;;5009809;28;20682;-70
2024/02/14 06:28:58;;;;;;;1.53;1.43;;;6.80;97.30;;;;;;5009780;28;20412;-69
2024/02/14 06:31:24;;;;;;;0.97;0.87;;;6.80;97.30;;;;;;5028520;28;20811;-71
2024/02/14 06:33:49;;;;;;;1.37;1.27;;;6.90;97.30;;;;;;5013344;28;20740;-70
2024/02/14 06:36:15;;;;;;;1.07;0.97;;;6.80;97.30;;;;;;5012934;28;20196;-71
2024/02/14 06:38:41;;;;;;;0.90;0.80;;;6.80;97.30;;;;;;5028538;28;20609;-68
2024/02/14 06:41:06;;;;;;;1.10;1.00;;;6.80;97.30;;;;;;5012666;28;20303;-72
2024/02/14 06:43:32;;;;;;;1.33;1.23;;;6.80;97.30;;;;;;5010330;28;20191;-70
2024/02/14 06:45:58;;;;;;;1.60;1.50;;;6.80;97.30;;;;;;5028253;28;20188;-69
2024/02/14 06:48:24;;;;;;;1.20;1.10;;;6.80;97.30;;;;;;5014140;28;20648;-71
2024/02/14 06:50:53;;;;;;;0.90;0.80;;;6.90;97.30;;;;;;5013213;28;20196;-69
2024/02/14 06:53:18;;;;;;;1.00;0.90;;;6.90;97.30;;;;;;5012328;28;20517;-71
2024/02/14 06:55:44;;;;;;;1.27;1.27;;;6.90;97.30;;;;;;5016836;28;20947;-72
2024/02/14 06:58:09;;;;;;;1.10;1.00;;;7.00;97.30;;;;;;5031219;28;20659;-72
2024/02/14 07:00:35;;;;;;;1.10;1.00;;;7.00;97.30;;;;;;5018832;28;20243;-70
2024/02/14 07:03:01;;;;;;;0.87;0.77;;;7.10;97.30;;;;;;5008145;28;20185;-69
2024/02/14 07:05:29;;;;;;;0.90;0.80;;;7.10;97.30;;;;;;5011466;28;20596;-71
2024/02/14 07:07:57;;;;;;;1.03;0.93;;;7.20;97.30;;;;;;5005160;28;20262;-70
2024/02/14 07:10:23;;;;;;;2.37;2.17;;;7.20;97.30;;;;;;5014063;28;20454;-71
2024/02/14 07:12:48;;;;;;;0.90;0.80;;;7.20;97.30;;;;;;5009625;28;20459;-69
2024/02/14 07:15:14;;;;;;;1.10;1.00;;;7.20;97.30;;;;;;5041646;28;20183;-69
2024/02/14 07:17:40;;;;;;;1.00;0.90;;;7.20;97.30;;;;;;5027690;28;20180;-70
2024/02/14 07:20:08;;;;;;;1.07;0.97;;;7.20;97.30;;;;;;5032898;28;20646;-72
2024/02/14 07:22:35;;;;;;;1.10;1.00;;;7.20;97.30;;;;;;5027522;28;20183;-70
2024/02/14 07:25:00;;;;;;;1.00;0.90;;;7.20;97.30;;;;;;5030482;28;20415;-70
2024/02/14 07:27:26;;;;;;;1.10;1.00;;;7.20;97.30;;;;;;5025413;28;20992;-70
2024/02/14 07:29:52;;;;;;;1.97;1.87;;;7.20;97.30;;;;;;5030276;28;20180;-70
2024/02/14 07:32:18;;;;;;;1.40;1.30;;;7.20;97.30;;;;;;5012243;28;20465;-69
2024/02/14 07:34:44;;;;;;;0.90;0.80;;;7.20;97.30;;;;;;5017708;28;20656;-69
2024/02/14 07:37:09;;;;;;;1.03;0.93;;;7.20;97.30;;;;;;5035338;28;20800;-70
2024/02/14 07:39:35;;;;;;;1.83;1.67;;;7.30;97.30;;;;;;5032509;28;20177;-69
2024/02/14 07:42:02;;;;;;;1.03;0.93;;;7.30;97.30;;;;;;5031301;28;20199;-70
2024/02/14 07:44:28;;;;;;;1.00;0.90;;;7.30;97.30;;;;;;5015388;28;20188;-69
2024/02/14 07:46:53;;;;;;;0.90;0.80;;;7.30;97.30;;;;;;5017302;28;20462;-69
2024/02/14 07:49:19;;;;;;;1.07;0.97;;;7.30;97.30;;;;;;5014434;28;20219;-69
2024/02/14 07:51:45;;;;;;;1.10;1.00;;;7.40;97.30;;;;;;5036151;28;20196;-69
2024/02/14 07:54:10;;;;;;;1.27;1.17;;;7.40;97.30;;;;;;5011755;28;20173;-70
2024/02/14 07:56:36;;;;;;;1.03;0.93;;;7.40;97.30;;;;;;5023824;28;20227;-69
2024/02/14 07:59:01;;;;;;;1.60;1.30;;;7.40;97.30;;;;;;5004307;28;20668;-69
2024/02/14 08:01:28;;;;;;;1.80;1.70;;;7.50;97.30;;;;;;5031578;28;20264;-69
2024/02/14 08:03:54;;;;;;;1.00;0.90;;;7.50;97.30;;;;;;5031682;28;20562;-69
2024/02/14 08:06:20;;;;;;;1.23;1.13;;;7.50;97.30;;;;;;5033310;28;20443;-69
2024/02/14 08:08:45;;;;;;;1.30;1.20;;;7.50;97.30;;;;;;5015303;28;20436;-69
2024/02/14 08:11:11;;;;;;;1.53;1.43;;;7.60;97.30;;;;;;5018869;28;20203;-69
2024/02/14 08:13:39;;;;;;;0.90;0.80;;;7.70;97.30;;;;;;5034232;28;20192;-70
2024/02/14 08:16:06;;;;;;;1.63;1.53;;;7.70;97.30;;;;;;5029451;28;20653;-70
2024/02/14 08:18:32;;;;;;;1.17;1.07;;;7.80;97.30;;;;;;5008290;28;20430;-69
2024/02/14 08:20:58;;;;;;;0.70;0.70;;;7.90;97.30;;;;;;5007399;28;20426;-71
2024/02/14 08:23:23;;;;;;;1.57;1.37;;;8.00;97.30;;;;;;5012866;28;20177;-69
2024/02/14 08:25:49;;;;;;;1.20;1.10;;;8.00;97.30;;;;;;5025694;28;20196;-69
2024/02/14 08:28:15;;;;;;;0.93;0.83;;;8.20;97.30;;;;;;5016182;28;20817;-71
2024/02/14 08:30:40;;;;;;;1.20;1.10;;;8.20;97.30;;;;;;5035431;28;20197;-70
2024/02/14 08:33:06;;;;;;;1.00;0.90;;;8.20;97.30;;;;;;5009398;28;20179;-70
2024/02/14 08:35:32;;;;;;;1.40;1.37;;;8.30;97.30;;;;;;5010541;28;20230;-69
2024/02/14 08:37:58;;;;;;;1.10;1.00;;;8.30;97.30;;;;;;5009103;28;20266;-71
2024/02/14 08:40:23;;;;;;;0.90;0.80;;;8.40;97.30;;;;;;5004644;28;20882;-70
2024/02/14 08:42:49;;;;;;;1.23;1.10;;;8.50;97.30;;;;;;5028612;28;20188;-70
2024/02/14 08:45:14;;;;;;;2.20;1.93;;;8.50;97.30;;;;;;5007904;28;20667;-69
2024/02/14 08:47:43;;;;;;;0.97;0.87;;;8.60;97.30;;;;;;5007589;28;20299;-69
2024/02/14 08:50:09;;;;;;;1.00;0.90;;;8.60;97.30;;;;;;5028664;28;20222;-68
2024/02/14 08:52:35;;;;;;;7.70;2.30;;;8.60;97.30;;;;;;5011961;28;20904;-71
2024/02/14 08:55:00;;;;;;;1.10;1.00;;;8.60;97.30;;;;;;5011577;28;20552;-69
2024/02/14 08:57:26;;;;;;;1.00;0.90;;;8.60;97.30;;;;;;5008547;28;20820;-72
2024/02/14 08:59:51;;;;;;;0.80;0.70;;;8.70;97.30;;;;;;5012212;28;20195;-71
2024/02/14 09:02:17;;;;;;;0.90;0.80;;;8.70;97.30;;;;;;5026155;28;20282;-78
2024/02/14 09:04:43;;;;;;;1.23;1.13;;;8.80;97.30;;;;;;5022556;28;20216;-71
2024/02/14 09:07:09;;;;;;;0.90;0.80;;;8.80;97.30;;;;;;5010863;28;20726;-73
2024/02/14 09:09:37;;;;;;;1.80;1.10;;;8.80;97.30;;;;;;5004091;28;20969;-70
2024/02/14 09:12:04;;;;;;;1.00;0.90;;;8.90;97.30;;;;;;5007013;28;20862;-71
2024/02/14 09:14:30;;;;;;;1.20;1.17;;;8.90;97.30;;;;;;5030439;28;20436;-70
2024/02/14 09:16:56;;;;;;;3.33;2.40;;;9.00;97.30;;;;;;5002800;28;20453;-69
2024/02/14 09:19:21;;;;;;;2.00;1.90;;;9.10;97.30;;;;;;5003271;28;20835;-76
2024/02/14 09:21:47;;;;;;;1.00;0.90;;;9.10;97.30;;;;;;5013153;28;20212;-72
2024/02/14 09:24:13;;;;;;;3.63;1.00;;;9.20;97.30;;;;;;5008946;28;20238;-73
2024/02/14 09:26:38;;;;;;;0.90;0.80;;;9.20;97.30;;;;;;5017392;28;20463;-70
2024/02/14 09:29:04;;;;;;;0.93;0.83;;;9.30;97.30;;;;;;5007069;28;20591;-71
2024/02/14 09:31:30;;;;;;;0.90;0.80;;;9.30;97.30;;;;;;5010673;28;20196;-70
2024/02/14 09:33:57;;;;;;;0.80;0.70;;;9.30;97.30;;;;;;5006620;28;20481;-71
2024/02/14 09:36:24;;;;;;;1.20;1.10;;;9.40;97.30;;;;;;5026344;28;20897;-71
2024/02/14 09:38:51;;;;;;;0.80;0.70;;;9.40;97.30;;;;;;5009128;28;20431;-70
2024/02/14 09:41:29;;;;;;;0.90;0.80;;;9.50;97.30;;;;;;5013803;28;20446;-71
2024/02/14 09:43:54;;;;;;;1.47;1.10;;;9.60;97.30;;;;;;5009726;28;20495;-73
2024/02/14 09:46:26;;;;;;;1.07;0.97;;;9.70;97.30;;;;;;5009314;28;21045;-70
2024/02/14 09:48:53;;;;;;;1.10;1.07;;;9.70;97.30;;;;;;5022902;28;20231;-70
2024/02/14 09:51:19;;;;;;;0.97;0.90;;;10.00;97.30;;;;;;5025455;28;20855;-70
2024/02/14 09:53:45;;;;;;;0.80;0.70;;;10.20;97.30;;;;;;5010438;28;20992;-71
2024/02/14 09:56:12;;;;;;;2.30;1.63;;;10.30;97.30;;;;;;5032201;28;20184;-70
2024/02/14 09:58:40;;;;;;;0.80;0.70;;;10.40;97.30;;;;;;5006651;28;20758;-71
2024/02/14 10:01:06;;;;;;;3.47;2.20;;;10.70;97.30;;;;;;5020111;28;20490;-72
2024/02/14 10:03:34;;;;;;;0.90;0.80;;;10.90;97.30;;;;;;5003476;28;20438;-81
2024/02/14 10:05:59;;;;;;;3.00;2.77;;;10.90;97.30;;;;;;5024459;28;20428;-76
2024/02/14 10:08:26;;;;;;;1.57;1.33;;;10.90;97.30;;;;;;5019728;28;20914;-71
2024/02/14 10:10:52;;;;;;;0.90;0.80;;;10.80;97.30;;;;;;5011825;28;20207;-73
2024/02/14 10:13:18;;;;;;;0.90;0.80;;;10.70;97.30;;;;;;5033028;28;20426;-73
2024/02/14 10:15:43;;;;;;;1.67;1.57;;;10.60;97.30;;;;;;5033184;28;20411;-70
2024/02/14 10:18:09;;;;;;;1.10;1.03;;;10.60;97.30;;;;;;5025212;28;20178;-72
2024/02/14 10:20:40;;;;;;;0.90;0.80;;;10.50;97.30;;;;;;5023875;28;20251;-73
2024/02/14 10:23:08;;;;;;;1.33;1.23;;;10.50;97.30;;;;;;5009524;28;20258;-73
2024/02/14 10:25:38;;;;;;;0.93;0.83;;;10.40;97.30;;;;;;5035191;28;20861;-71
2024/02/14 10:28:08;;;;;;;1.40;1.33;;;10.40;97.30;;;;;;5016845;28;20469;-72
2024/02/14 10:30:35;;;;;;;1.00;0.90;;;10.40;97.30;;;;;;5036005;28;20449;-74
2024/02/14 10:33:03;;;;;;;1.10;1.00;;;10.40;97.30;;;;;;5021579;28;20434;-76
2024/02/14 10:35:31;;;;;;;2.80;1.93;;;10.40;97.30;;;;;;5013760;28;20419;-71
2024/02/14 10:38:01;;;;;;;1.00;0.90;;;10.30;97.30;;;;;;5031053;28;20411;-75
2024/02/14 10:40:28;;;;;;;0.80;0.70;;;10.20;97.30;;;;;;5037145;28;20537;-73
2024/02/14 10:42:55;;;;;;;1.63;1.37;;;10.20;97.30;;;;;;5043039;28;20823;-73
2024/02/14 10:45:20;;;;;;;2.13;1.20;;;10.20;97.30;;;;;;5033128;28;20426;-69
2024/02/14 10:47:48;;;;;;;1.07;1.00;;;10.00;97.30;;;;;;5042407;28;20829;-69
2024/02/14 10:50:15;;;;;;;3.00;1.23;;;9.90;97.30;;;;;;5013320;28;20730;-74
2024/02/14 10:52:41;;;;;;;0.90;0.80;;;9.90;97.30;;;;;;5039775;28;20439;-70
2024/02/14 10:55:09;;;;;;;1.10;1.00;;;9.80;97.30;;;;;;5039261;28;20426;-69
2024/02/14 10:57:35;;;;;;;0.90;0.80;;;9.80;97.30;;;;;;5030755;28;20784;-73
2024/02/14 11:00:07;;;;;;;1.27;0.93;;;9.70;97.30;;;;;;5030554;28;20431;-72
2024/02/14 11:02:33;;;;;;;1.00;0.90;;;9.70;97.30;;;;;;5012000;28;20482;-73
2024/02/14 11:05:00;;;;;;;0.90;0.80;;;9.70;97.30;;;;;;5011019;28;20814;-69
2024/02/14 11:07:28;;;;;;;1.30;1.07;;;9.60;97.30;;;;;;5030882;28;20455;-70
2024/02/14 11:10:07;;;;;;;1.00;0.90;;;9.60;97.30;;;;;;5040852;28;20501;-69
2024/02/14 11:12:38;;;;;;;1.00;0.90;;;9.60;97.30;;;;;;5024669;28;20429;-68
2024/02/14 11:15:12;;;;;;;0.80;0.70;;;9.60;97.30;;;;;;5031523;28;20429;-70
2024/02/14 11:17:39;;;;;;;1.27;1.17;;;9.60;97.30;;;;;;5052852;23;20492;-88
2024/02/14 11:20:19;;;;;;;0.80;0.70;;;9.60;97.30;;;;;;5042753;28;20418;-88
2024/02/14 11:23:03;;;;;;;1.23;1.20;;;9.70;97.30;;;;;;5047584;28;20574;-87
2024/02/14 11:25:32;;;;;;;3.70;1.63;;;9.70;97.30;;;;;;5049788;28;20406;-88
2024/02/14 11:27:59;;;;;;;0.93;0.83;;;9.70;97.30;;;;;;5043478;23;20479;-66
2024/02/14 11:30:31;;;;;;;1.37;1.20;;;9.70;97.30;;;;;;5030021;28;20427;-66
2024/02/14 11:33:24;;;;;;;1.20;1.10;;;9.90;97.30;;;;;;5026481;28;20424;-65
2024/02/14 11:35:52;;;;;;;1.40;1.30;;;10.00;97.30;;;;;;5025143;28;20502;-66
2024/02/14 11:38:19;;;;;;;0.93;0.90;;;10.10;97.30;;;;;;5025581;28;20423;-68
2024/02/14 11:40:45;;;;;;;1.20;1.00;;;10.20;97.30;;;;;;5019332;28;20436;-68
2024/02/14 11:43:16;;;;;;;1.10;1.00;;;10.20;97.30;;;;;;5021126;28;20484;-66
2024/02/14 11:45:42;;;;;;;0.87;0.77;;;10.20;97.30;;;;;;5021417;28;20415;-65
2024/02/14 11:48:12;;;;;;;1.00;0.90;;;10.30;97.30;;;;;;5026030;28;20832;-66
2024/02/14 11:50:43;;;;;;;0.90;0.80;;;10.30;97.30;;;;;;5022665;28;20471;-65
2024/02/14 11:53:13;;;;;;;1.00;0.90;;;10.40;97.30;;;;;;5026899;28;20420;-66
2024/02/14 11:55:40;;;;;;;1.13;1.03;;;10.50;97.30;;;;;;5015934;28;20939;-69
2024/02/14 11:58:10;;;;;;;1.03;0.93;;;10.50;97.30;;;;;;5016789;28;20849;-66
2024/02/14 12:00:39;;;;;;;0.80;0.70;;;10.50;97.30;;;;;;5019619;28;20442;-66
2024/02/14 12:03:08;;;;;;;1.10;1.00;;;10.50;97.30;;;;;;5019997;28;20437;-66
2024/02/14 12:05:36;;;;;;;0.80;0.70;;;10.50;97.30;;;;;;5021358;28;20416;-66
2024/02/14 12:08:04;;;;;;;1.20;1.10;;;10.40;97.30;;;;;;5022580;28;20467;-67
2024/02/14 12:10:32;;;;;;;2.20;1.70;;;10.40;97.30;;;;;;5017522;28;20541;-66
2024/02/14 12:12:59;;;;;;;0.90;0.80;;;10.40;97.30;;;;;;5021109;28;20503;-67
2024/02/14 12:15:26;;;;;;;1.00;0.90;;;10.40;97.30;;;;;;5022393;28;20430;-67
2024/02/14 12:17:54;;;;;;;1.10;1.00;;;10.50;97.30;;;;;;5023794;28;20433;-66
2024/02/14 12:20:23;;;;;;;0.90;0.80;;;10.60;97.30;;;;;;5018175;28;20451;-66
2024/02/14 12:22:51;;;;;;;1.80;1.10;;;10.80;97.30;;;;;;5029219;28;20510;-66
2024/02/14 12:25:17;;;;;;;1.13;1.03;;;11.00;97.30;;;;;;5029054;28;20476;-66
2024/02/14 12:27:49;;;;;;;0.90;0.80;;;11.20;97.30;;;;;;5021640;28;20479;-66
2024/02/14 12:30:16;;;;;;;0.93;0.83;;;11.40;97.30;;;;;;5008304;28;20176;-67
2024/02/14 12:32:42;;;;;;;3.80;1.27;;;11.50;97.30;;;;;;5022467;28;20769;-67
2024/02/14 12:35:08;;;;;;;0.87;0.77;;;11.60;97.30;;;;;;5018963;28;20853;-67
2024/02/14 12:37:34;;;;;;;1.13;0.90;;;11.70;97.30;;;;;;4996782;28;20518;-66
2024/02/14 12:39:59;;;;;;;0.90;0.80;;;12.00;97.30;;;;;;5003284;28;20419;-66
2024/02/14 12:42:27;;;;;;;0.90;0.80;;;12.30;97.30;;;;;;5023407;28;20204;-67
2024/02/14 12:44:55;;;;;;;0.90;0.80;;;12.50;97.30;;;;;;5010707;28;20176;-68
2024/02/14 12:47:21;;;;;;;1.23;1.13;;;12.60;97.30;;;;;;5045399;28;20509;-66
2024/02/14 12:49:48;;;;;;;1.63;1.20;;;12.30;97.30;;;;;;5027668;28;20430;-66
2024/02/14 12:52:14;;;;;;;1.00;0.90;;;12.20;97.30;;;;;;5022008;28;20470;-68
2024/02/14 12:54:39;;;;;;;1.00;0.90;;;12.30;97.30;;;;;;5022564;28;20446;-68
2024/02/14 12:57:06;;;;;;;0.90;0.80;;;12.30;97.30;;;;;;5022177;28;20690;-67
2024/02/14 12:59:32;;;;;;;0.97;0.87;;;12.20;97.30;;;;;;5021426;28;20179;-66
2024/02/14 13:01:57;;;;;;;1.67;1.00;;;12.30;97.30;;;;;;5028819;28;21012;-66
2024/02/14 13:04:23;;;;;;;1.67;1.07;;;12.30;97.30;;;;;;5031067;28;20215;-66
2024/02/14 13:06:49;;;;;;;1.17;1.07;;;12.30;97.30;;;;;;5039469;28;20222;-68
2024/02/14 13:09:14;;;;;;;1.17;1.07;;;12.20;97.30;;;;;;5045084;28;20623;-67
2024/02/14 13:11:42;;;;;;;0.90;0.80;;;12.10;97.30;;;;;;5023429;28;20200;-74
2024/02/14 13:14:08;;;;;;;0.90;0.80;;;12.00;97.30;;;;;;5028263;28;20172;-69
2024/02/14 13:16:34;;;;;;;1.13;1.03;;;11.90;97.30;;;;;;5047631;28;20740;-67
2024/02/14 13:19:00;;;;;;;1.03;0.93;;;11.90;97.30;;;;;;5047350;28;20450;-67
2024/02/14 13:21:25;;;;;;;1.10;1.00;;;11.90;97.30;;;;;;5033353;28;20235;-67
2024/02/14 13:23:51;;;;;;;0.90;0.80;;;12.00;97.30;;;;;;5020057;28;20683;-67
2024/02/14 13:26:17;;;;;;;2.90;1.30;;;12.00;97.30;;;;;;5046787;28;20184;-66
2024/02/14 13:28:42;;;;;;;4.83;1.13;;;12.00;97.30;;;;;;5032082;28;20217;-67
2024/02/14 13:31:10;;;;;;;0.90;0.80;;;11.80;97.30;;;;;;5001157;28;21004;-65
2024/02/14 13:33:35;;;;;;;0.90;0.80;;;11.80;97.30;;;;;;5011433;28;20210;-69
2024/02/14 13:36:01;;;;;;;0.80;0.70;;;11.70;97.30;;;;;;5009221;28;20503;-66
2024/02/14 13:38:27;;;;;;;1.10;1.00;;;11.70;97.30;;;;;;4997405;28;20216;-67
2024/02/14 13:40:53;;;;;;;0.97;0.87;;;11.70;97.30;;;;;;5030720;28;20222;-66
2024/02/14 13:43:18;;;;;;;0.93;0.83;;;11.70;97.30;;;;;;5045980;28;20411;-67
2024/02/14 13:45:46;;;;;;;1.20;1.10;;;11.60;97.30;;;;;;5031898;28;20227;-66
2024/02/14 13:48:11;;;;;;;2.90;1.13;;;11.50;97.30;;;;;;5044064;28;20356;-67
2024/02/14 13:50:38;;;;;;;5.70;1.20;;;11.50;97.30;;;;;;5020096;28;20878;-66
2024/02/14 13:53:04;;;;;;;1.23;1.13;;;11.40;97.30;;;;;;5046094;28;20706;-67
2024/02/14 13:55:29;;;;;;;0.90;0.80;;;11.40;97.30;;;;;;5035997;28;20422;-67
2024/02/14 13:57:55;;;;;;;1.53;1.50;;;11.40;97.30;;;;;;5034979;28;20423;-66
2024/02/14 14:00:20;;;;;;;1.07;0.97;;;11.30;97.30;;;;;;5006114;28;20195;-66
2024/02/14 14:02:46;;;;;;;1.60;1.50;;;11.30;97.30;;;;;;5029421;28;20183;-67
2024/02/14 14:05:12;;;;;;;0.90;0.80;;;11.30;97.30;;;;;;5021057;28;20641;-69
2024/02/14 14:07:39;;;;;;;1.00;0.90;;;11.30;97.30;;;;;;5047378;28;20203;-68
2024/02/14 14:10:05;;;;;;;1.20;1.10;;;11.30;97.30;;;;;;5047451;28;20418;-68
2024/02/14 14:12:31;;;;;;;1.10;1.00;;;11.30;97.30;;;;;;5047319;28;20426;-69
2024/02/14 14:14:57;;;;;;;1.63;1.43;;;11.30;97.30;;;;;;5038854;28;20414;-67
2024/02/14 14:17:23;;;;;;;1.07;0.80;;;11.40;97.30;;;;;;5042069;28;20411;-66
2024/02/14 14:19:48;;;;;;;1.23;1.00;;;11.50;97.30;;;;;;5024194;28;20452;-67
2024/02/14 14:22:16;;;;;;;1.00;0.90;;;11.80;97.30;;;;;;5012548;28;20204;-66
2024/02/14 14:24:41;;;;;;;1.00;0.90;;;12.00;97.30;;;;;;5039174;28;20258;-67
2024/02/14 14:27:14;;;;;;;1.30;1.20;;;12.10;97.30;;;;;;5005066;28;1339764;-67
2024/02/14 14:29:43;;;;;;;2.90;1.20;;;12.00;97.30;;;;;;5003716;28;20185;-66
2024/02/14 14:32:09;;;;;;;1.37;1.30;;;11.90;97.30;;;;;;5004592;28;20434;-68
2024/02/14 14:34:35;;;;;;;1.00;0.90;;;11.90;97.30;;;;;;5008599;28;20434;-66
2024/02/14 14:37:01;;;;;;;1.27;1.27;;;11.80;97.30;;;;;;5033200;28;20423;-68
2024/02/14 14:39:27;;;;;;;0.90;0.80;;;11.80;97.30;;;;;;5030800;28;20434;-68
2024/02/14 14:41:58;;;;;;;1.23;1.13;;;11.70;97.30;;;;;;5011420;28;20510;-68
2024/02/14 14:44:24;;;;;;;1.00;0.90;;;11.60;97.30;;;;;;5011378;28;20188;-67
2024/02/14 14:46:50;;;;;;;0.90;0.80;;;11.50;97.30;;;;;;5003943;28;20872;-66
2024/02/14 14:49:16;;;;;;;1.90;1.87;;;11.40;97.30;;;;;;5030057;28;20456;-69
2024/02/14 14:51:42;;;;;;;1.00;0.90;;;11.40;97.30;;;;;;5023607;28;20288;-69
2024/02/14 14:54:08;;;;;;;1.20;1.10;;;11.30;97.30;;;;;;5027616;28;20446;-70
2024/02/14 14:56:33;;;;;;;1.00;0.90;;;11.30;97.30;;;;;;5009711;28;20173;-69
2024/02/14 14:59:02;;;;;;;1.30;1.20;;;11.20;97.30;;;;;;5025947;28;20416;-69
2024/02/14 15:01:29;;;;;;;1.13;1.07;;;11.20;97.30;;;;;;5026857;28;20200;-68
2024/02/14 15:03:54;;;;;;;4.20;1.27;;;11.20;97.30;;;;;;5020362;28;20438;-67
2024/02/14 15:06:21;;;;;;;1.30;1.20;;;11.20;97.30;;;;;;5004175;28;20944;-69
2024/02/14 15:08:48;;;;;;;1.30;1.20;;;11.20;97.30;;;;;;5008315;28;20613;-70
2024/02/14 15:11:16;;;;;;;1.53;1.20;;;11.20;97.30;;;;;;5017492;28;20577;-68
2024/02/14 15:13:42;;;;;;;1.00;0.90;;;11.10;97.30;;;;;;5030129;28;20422;-68
2024/02/14 15:16:08;;;;;;;1.77;1.47;;;11.00;97.30;;;;;;5029804;28;20415;-69
2024/02/14 15:18:34;;;;;;;1.20;1.13;;;11.00;97.30;;;;;;5027097;28;20416;-68
2024/02/14 15:21:01;;;;;;;6.30;3.00;;;11.00;97.30;;;;;;5020721;28;20446;-69
2024/02/14 15:23:28;;;;;;;1.33;1.23;;;11.00;97.30;;;;;;4997182;28;20437;-69
2024/02/14 15:26:02;;;;;;;0.90;0.90;;;10.90;97.30;;;;;;5038074;28;20445;-69
2024/02/14 15:28:27;;;;;;;1.20;1.10;;;10.90;97.30;;;;;;5012063;28;20474;-70
2024/02/14 15:33:37;;;;;;;1.00;0.90;;;10.80;97.30;;;;;;5013431;28;20549;-69
2024/02/14 15:36:03;;;;;;;1.27;1.17;;;10.70;97.30;;;;;;5023866;28;20417;-70
2024/02/14 15:38:29;;;;;;;0.90;0.80;;;10.70;97.30;;;;;;5032967;28;20180;-68
2024/02/14 15:41:00;;;;;;;0.90;0.80;;;10.70;97.30;;;;;;5031765;28;20208;-70
2024/02/14 15:43:27;;;;;;;1.00;0.90;;;10.70;97.30;;;;;;5031906;28;20285;-68
2024/02/14 15:45:52;;;;;;;1.10;1.00;;;10.60;97.30;;;;;;5032181;28;20419;-71
2024/02/14 15:48:19;;;;;;;1.23;1.13;;;10.60;97.30;;;;;;5031205;28;21012;-69
2024/02/14 15:50:45;;;;;;;1.00;0.90;;;10.50;97.30;;;;;;5024596;28;20616;-69
2024/02/14 15:53:11;;;;;;;1.33;1.23;;;10.50;97.30;;;;;;5013751;28;20426;-69
2024/02/14 15:55:37;;;;;;;1.10;1.00;;;10.50;97.30;;;;;;5010000;28;21092;-69
2024/02/14 15:58:03;;;;;;;1.83;1.80;;;10.40;97.30;;;;;;5019471;28;20430;-69
2024/02/14 16:00:31;;;;;;;1.37;1.27;;;10.40;97.30;;;;;;5017896;28;20192;-69
2024/02/14 16:02:58;;;;;;;2.00;1.20;;;10.40;97.30;;;;;;5011511;28;20424;-70
2024/02/14 16:05:23;;;;;;;1.90;1.13;;;10.40;97.30;;;;;;5028926;28;20828;-70
2024/02/14 16:07:49;;;;;;;1.00;0.90;;;10.40;97.30;;;;;;5017794;28;20955;-70
2024/02/14 16:10:15;;;;;;;1.83;1.73;;;10.40;97.30;;;;;;5012125;28;20198;-70
2024/02/14 16:12:45;;;;;;;1.00;0.90;;;10.30;97.30;;;;;;5009575;28;20205;-69
2024/02/14 16:15:11;;;;;;;5.23;1.53;;;10.30;97.30;;;;;;5011536;28;20430;-69
2024/02/14 16:17:37;;;;;;;2.03;1.90;;;10.30;97.30;;;;;;5017050;28;20455;-69
2024/02/14 16:20:06;;;;;;;1.00;0.90;;;10.30;97.30;;;;;;5009078;28;20507;-70
2024/02/14 16:22:33;;;;;;;1.00;0.90;;;10.30;97.30;;;;;;5010870;28;20235;-70
2024/02/14 16:24:58;;;;;;;8.20;1.70;;;10.30;97.30;;;;;;5010934;28;20408;-71
2024/02/14 16:27:24;;;;;;;2.23;2.03;;;10.30;97.30;;;;;;5013185;28;20475;-70
2024/02/14 16:29:50;;;;;;;1.67;1.60;;;10.20;97.30;;;;;;5030831;28;20176;-70
2024/02/14 16:32:16;;;;;;;1.03;0.93;;;10.20;97.30;;;;;;5008552;28;20208;-70
2024/02/14 16:34:43;;;;;;;1.77;1.77;;;10.20;97.30;;;;;;5048790;28;20259;-68
2024/02/14 16:37:08;;;;;;;2.60;2.40;;;10.20;97.30;;;;;;5014849;28;20189;-70
2024/02/14 16:39:35;;;;;;;1.23;1.13;;;10.20;97.30;;;;;;5007123;28;20930;-70
2024/02/14 16:42:02;;;;;;;1.23;1.13;;;10.30;97.30;;;;;;5009513;28;20283;-69
2024/02/14 16:44:27;;;;;;;1.50;1.40;;;10.30;97.30;;;;;;5012675;28;20427;-70
2024/02/14 16:46:53;;;;;;;1.43;1.40;;;10.20;97.30;;;;;;5015648;28;20459;-69
2024/02/14 16:49:19;;;;;;;2.20;1.47;;;10.20;97.30;;;;;;4995966;28;20201;-70
2024/02/14 16:51:45;;;;;;;0.90;0.80;;;10.10;97.30;;;;;;5011934;28;20192;-71
2024/02/14 16:54:10;;;;;;;1.10;1.00;;;10.10;97.30;;;;;;5013223;28;20424;-70
2024/02/14 16:56:36;;;;;;;1.57;1.47;;;10.00;97.30;;;;;;5013505;28;20199;-70
2024/02/14 16:59:01;;;;;;;1.80;1.20;;;10.00;97.30;;;;;;5022856;28;20545;-70
2024/02/14 17:01:27;;;;;;;1.47;1.23;;;10.00;97.30;;;;;;5019941;28;20200;-70
2024/02/14 17:03:54;;;;;;;2.30;2.17;;;10.00;97.30;;;;;;4998054;28;20189;-70
2024/02/14 17:06:20;;;;;;;1.10;1.00;;;10.00;97.30;;;;;;4991862;28;20185;-70
2024/02/14 17:08:46;;;;;;;1.53;1.53;;;9.90;97.30;;;;;;5000113;28;20432;-70
2024/02/14 17:11:15;;;;;;;1.10;1.00;;;9.90;97.30;;;;;;5009226;28;20197;-70
2024/02/14 17:13:42;;;;;;;1.57;1.47;;;9.90;97.30;;;;;;4991373;28;20653;-70
2024/02/14 17:16:07;;;;;;;1.20;1.10;;;9.90;97.30;;;;;;5008316;28;20896;-70
2024/02/14 17:18:33;;;;;;;2.43;1.63;;;9.90;97.30;;;;;;5008805;28;20481;-70
2024/02/14 17:20:59;;;;;;;1.10;1.00;;;9.80;97.30;;;;;;5010674;28;20204;-70
2024/02/14 17:23:25;;;;;;;2.33;2.13;;;9.80;97.30;;;;;;5045085;28;20517;-70
2024/02/14 17:25:50;;;;;;;6.00;1.53;;;9.80;97.30;;;;;;5022199;28;20215;-69
2024/02/14 17:28:16;;;;;;;3.20;2.13;;;9.70;97.30;;;;;;5043424;28;20393;-70
2024/02/14 17:30:42;;;;;;;1.10;1.00;;;9.70;97.30;;;;;;5024366;28;20208;-70
2024/02/14 17:33:08;;;;;;;1.50;1.20;;;9.70;97.30;;;;;;5009540;28;20431;-69
2024/02/14 17:35:33;;;;;;;1.00;0.90;;;9.60;97.30;;;;;;5036170;28;20203;-69
2024/02/14 17:37:59;;;;;;;1.30;1.30;;;9.60;97.30;;;;;;5025094;28;20922;-70
2024/02/14 17:40:25;;;;;;;1.20;1.10;;;9.60;97.30;;;;;;5038684;28;20272;-70
2024/02/14 17:42:51;;;;;;;5.10;1.30;;;9.60;97.30;;;;;;5033895;28;20423;-69
2024/02/14 17:45:18;;;;;;;1.50;1.37;;;9.60;97.30;;;;;;5017644;28;20223;-70
2024/02/14 17:47:44;;;;;;;1.10;1.00;;;9.60;97.30;;;;;;5028073;28;20200;-69
2024/02/14 17:50:10;;;;;;;1.20;1.20;;;9.50;97.30;;;;;;5027873;28;20423;-70
2024/02/14 17:52:37;;;;;;;1.33;1.23;;;9.50;97.30;;;;;;5027150;28;20424;-70